Aérodrome :
LOGIN :

S'inscrire | Disclaimer

   EN    FR    IT 

 










Légende :    VFR   VFR Marginal   IFR   IFR Intensif   IFR Très Intensif
Visi : 
Plafond : 
>= 8 km
>= 3000ft
5 à 8 km
1000 à 3000 ft
1500m à 5 km
500 à 1000 ft
800 à 1500m
200 à 500 ft
< 800m
< 200 ft
Symboles :   Orages  Brouillard  Fortes neiges  Fortes précipitations  Vent > 20 kt
SIGMETs :   Divers  Orages  Givrage  Turbulence  Onde Orograph.  Cendres Volcan.







- Altitude de l'aérodrome : 13 ft
- Code IATA : SNR
- Voir les cartes d'approche


LFRZ - St-Nazaire

DERNIER METAR :
  • 181030Z AUTO 12004KT 090V160 5000 -RADZ BR ////// 17/16 Q1010

METARs EXPIRÉS :
  • 181000Z AUTO 12004KT 3500 -RA BR BKN006 OVC030 17/16 Q1010 TEMPO BKN004 BKN030
  • 180930Z AUTO VRB02KT 5000 BR BKN005/// BKN010/// OVC014/// ///TCU 16/16 Q1010 TEMPO BKN004 BKN030
  • 180900Z AUTO VRB02KT 8000 ////// 16/15 Q1010
  • 180830Z AUTO 26005KT 230V320 4300 R25/1300D -RA BR BKN004/// BKN008/// OVC017/// ///TCU 16/15 Q1010 TEMPO BKN006 BKN030
  • 180800Z AUTO 00000KT 6000 -RA FEW005/// SCT020/// BKN034/// ///TCU 16/15 Q1010 TEMPO 4000 -RA BKN006 BKN030

TAF AMD TAF LFRZ
Valide du 18 à 08h jusqu'au 19 à 06h UTC


180842Z 1808/1906 18005KT 9999 BKN015 BKN050
TEMPO 1808/1812 4000 -RA BKN004 BKN030
BECMG 1814/1816 BKN020
BECMG 1816/1818 NSC
TEMPO 1822/1906 4000 SHRA BKN012
PROB30
TEMPO 1900/1906 BKN004
Pas de NOTAMs connus pour ce terrain.
3 SIGMETs publiés pour la FIR Brest (LFRR) :
 
Orages noyés dans la masse
LFRR SIGMET 4 VALID 181050/181250 LFPW
LFRR BREST FIR/UIR EMBD TS OBS AT 1050Z WI N4415 W00400 - N4515 W00600 - N4615 W00515 - N4530 W00300 TOP FL360 STNR NC=
Turbulence forte
LFRR SIGMET 3 VALID 181000/181400 LFPW
LFRR BREST FIR/UIR SEV TURB FCST W OF LINE N4430 W00545 - N4915 W00700 FL220/350 MOV E 10KT NC=
Annulation du SIGMET 1 
LFRR SIGMET 2 VALID 180920/181045 LFPW
LFRR BREST FIR/UIR CNL SIGMET 1 180845/181045=



MET'MAP, la Météo Aéronautique d'un coup d'oeil ! - Copyright ORBIFLY Décembre 2007 - Disclaimer

ORBIFLY MET'MAP TEAM :

Programmation & Développement : Alexandra Zaïnal
Conception & Développement : Baudouin d'Aumeries
Co-Programmation & Développement : Marc-Olivier Méhu
Soutien technique & logistique : Manuel Goepfert

Contact : metmap@orbifly.com




SOURCES & CREDITS :

   NOAA